Time;durP1;ratioP1;P1;durP2;ratioP2;P2;SDS_P1;SDS_P2;PMS_P1;PMS_P2;Temp;Humidity;BMP_temperature;BMP_pressure;BME280_temperature;BME280_humidity;BME280_pressure;Samples;Min_cycle;Max_cycle;Signal;HPM_P1;HPM_P2
2024/03/02 00:02:13;;;;;;;3.40;0.70;;;8.60;99.90;;;;;;5025110;28;20021;-71
2024/03/02 00:04:39;;;;;;;2.53;0.50;;;8.40;99.90;;;;;;5040149;28;20075;-72
2024/03/02 00:07:06;;;;;;;0.90;0.28;;;8.20;99.90;;;;;;5035437;28;20084;-72
2024/03/02 00:09:33;;;;;;;1.25;0.30;;;8.10;99.90;;;;;;5036513;28;20040;-72
2024/03/02 00:12:00;;;;;;;0.20;0.00;;;7.90;99.90;;;;;;5049780;28;20033;-72
2024/03/02 00:14:25;;;;;;;1.85;0.88;;;7.80;99.90;;;;;;5048626;28;20059;-71
2024/03/02 00:16:51;;;;;;;1.23;0.10;;;7.60;99.90;;;;;;5058033;28;20048;-72
2024/03/02 00:19:17;;;;;;;0.95;0.00;;;7.50;99.90;;;;;;5054026;28;20048;-75
2024/03/02 00:21:43;;;;;;;0.70;0.00;;;7.40;99.90;;;;;;5046578;28;20040;-72
2024/03/02 00:24:26;;;;;;;0.00;0.00;;;7.30;99.90;;;;;;5056702;28;20067;-73
2024/03/02 00:26:52;;;;;;;0.00;0.00;;;7.30;99.90;;;;;;5058545;28;20039;-73
2024/03/02 00:29:19;;;;;;;0.57;0.00;;;7.20;99.90;;;;;;5046745;28;20041;-73
2024/03/02 00:31:46;;;;;;;0.05;0.00;;;7.20;99.90;;;;;;5047474;28;20056;-73
2024/03/02 00:34:16;;;;;;;1.58;0.00;;;7.10;99.90;;;;;;5057715;28;20045;-72
2024/03/02 00:36:41;;;;;;;1.80;0.00;;;7.10;99.90;;;;;;5047880;28;20036;-74
2024/03/02 00:39:07;;;;;;;0.63;0.00;;;7.10;99.90;;;;;;5057060;28;20033;-72
2024/03/02 00:41:33;;;;;;;0.15;0.00;;;7.00;99.90;;;;;;5060683;28;20029;-72
2024/03/02 00:44:00;;;;;;;0.10;0.00;;;7.00;99.90;;;;;;5055806;28;20037;-72
2024/03/02 00:46:29;;;;;;;1.25;0.00;;;7.00;99.90;;;;;;5056725;28;20039;-73
2024/03/02 00:49:00;;;;;;;0.00;0.00;;;7.00;99.90;;;;;;5057464;28;20033;-72
2024/03/02 00:51:27;;;;;;;0.52;0.00;;;6.90;99.90;;;;;;5056648;28;20078;-71
2024/03/02 00:53:56;;;;;;;0.10;0.00;;;7.00;99.90;;;;;;5059723;28;20037;-72
2024/03/02 00:56:22;;;;;;;0.25;0.00;;;6.90;99.90;;;;;;5056337;28;20032;-73
2024/03/02 00:58:49;;;;;;;0.08;0.00;;;6.90;99.90;;;;;;5060064;28;20032;-72
2024/03/02 01:01:16;;;;;;;1.45;0.08;;;6.90;99.90;;;;;;5058942;28;20407;-72
2024/03/02 01:03:41;;;;;;;0.00;0.00;;;6.90;99.90;;;;;;5060582;28;20405;-70
2024/03/02 01:06:07;;;;;;;0.28;0.10;;;6.90;99.90;;;;;;5057752;28;20033;-72
2024/03/02 01:08:34;;;;;;;0.10;0.00;;;6.90;99.90;;;;;;5061397;28;20039;-75
2024/03/02 01:11:00;;;;;;;0.40;0.00;;;6.90;99.90;;;;;;5050731;28;20042;-74
2024/03/02 01:13:26;;;;;;;0.82;0.13;;;6.90;99.90;;;;;;5060782;28;20143;-71
2024/03/02 01:15:51;;;;;;;0.43;0.00;;;6.90;99.90;;;;;;5046482;28;20561;-72
2024/03/02 01:18:17;;;;;;;0.65;0.10;;;6.90;99.90;;;;;;5059433;28;20501;-72
2024/03/02 01:20:42;;;;;;;0.20;0.10;;;6.90;99.90;;;;;;5060238;28;20390;-70
2024/03/02 01:23:08;;;;;;;0.20;0.05;;;6.90;99.90;;;;;;5044874;28;20063;-72
2024/03/02 01:25:33;;;;;;;0.10;0.00;;;6.80;99.90;;;;;;5045859;28;20039;-72
2024/03/02 01:27:59;;;;;;;0.08;0.03;;;6.90;99.90;;;;;;5038545;28;20653;-74
2024/03/02 01:30:24;;;;;;;0.50;0.20;;;6.90;99.90;;;;;;5038205;28;20498;-73
2024/03/02 01:32:50;;;;;;;0.30;0.10;;;6.90;99.90;;;;;;5041127;28;20055;-74
2024/03/02 01:35:15;;;;;;;1.20;0.52;;;6.90;99.90;;;;;;5040837;28;20802;-72
2024/03/02 01:37:41;;;;;;;0.22;0.00;;;6.90;99.90;;;;;;5037421;28;20064;-71
2024/03/02 01:40:09;;;;;;;0.88;0.30;;;6.90;99.90;;;;;;5040694;28;20037;-72
2024/03/02 01:42:38;;;;;;;0.30;0.10;;;6.90;99.90;;;;;;5039796;28;20041;-72
2024/03/02 01:45:08;;;;;;;0.85;0.38;;;6.80;99.90;;;;;;5037998;28;20761;-72
2024/03/02 01:47:34;;;;;;;0.00;0.00;;;6.80;99.90;;;;;;5042906;28;20080;-72
2024/03/02 01:50:00;;;;;;;0.25;0.10;;;6.90;99.90;;;;;;5039294;28;20025;-73
2024/03/02 01:52:27;;;;;;;0.47;0.17;;;6.90;99.90;;;;;;5040962;28;20406;-74
2024/03/02 01:54:52;;;;;;;0.30;0.10;;;6.90;99.90;;;;;;5039427;28;20575;-73
2024/03/02 01:57:18;;;;;;;0.43;0.10;;;6.80;99.90;;;;;;5041185;28;20179;-71
2024/03/02 01:59:45;;;;;;;0.60;0.13;;;6.80;99.90;;;;;;5043580;28;20498;-72
2024/03/02 02:02:10;;;;;;;0.43;0.10;;;6.70;99.90;;;;;;5039546;28;20049;-73
2024/03/02 02:04:36;;;;;;;0.70;0.10;;;6.80;99.90;;;;;;5038218;28;20165;-72
2024/03/02 02:07:01;;;;;;;0.50;0.10;;;6.70;99.90;;;;;;5038720;28;20045;-71
2024/03/02 02:09:27;;;;;;;0.80;0.13;;;6.70;99.90;;;;;;5040665;28;20131;-73
2024/03/02 02:11:52;;;;;;;0.32;0.10;;;6.70;99.90;;;;;;5034270;28;20037;-74
2024/03/02 02:14:18;;;;;;;0.20;0.00;;;6.80;99.90;;;;;;5041202;28;20051;-74
2024/03/02 02:16:44;;;;;;;0.98;0.10;;;6.80;99.90;;;;;;5027185;28;20037;-71
2024/03/02 02:19:10;;;;;;;0.17;0.10;;;6.70;99.90;;;;;;5040130;28;20033;-72
2024/03/02 02:21:36;;;;;;;0.20;0.03;;;6.70;99.90;;;;;;5038608;28;20557;-72
2024/03/02 02:24:03;;;;;;;0.70;0.10;;;6.70;99.90;;;;;;5038576;28;20120;-73
2024/03/02 02:26:29;;;;;;;0.00;0.00;;;6.60;99.90;;;;;;5040112;28;20041;-72
2024/03/02 02:28:55;;;;;;;0.57;0.08;;;6.60;99.90;;;;;;5046719;28;20052;-72
2024/03/02 02:31:20;;;;;;;0.20;0.10;;;6.60;99.90;;;;;;5044405;28;20120;-72
2024/03/02 02:33:46;;;;;;;0.60;0.00;;;6.60;99.90;;;;;;5041492;28;20462;-72
2024/03/02 02:36:11;;;;;;;1.45;0.10;;;6.60;99.90;;;;;;5044756;28;20477;-74
2024/03/02 02:38:42;;;;;;;1.13;0.30;;;6.60;99.90;;;;;;5046317;28;20391;-71
2024/03/02 02:41:08;;;;;;;0.10;0.10;;;6.60;99.90;;;;;;5040767;28;20465;-73
2024/03/02 02:43:33;;;;;;;1.83;0.25;;;6.60;99.90;;;;;;5045784;28;20059;-71
2024/03/02 02:45:59;;;;;;;0.70;0.13;;;6.60;99.90;;;;;;5048444;28;20406;-71
2024/03/02 02:48:24;;;;;;;0.75;0.20;;;6.60;99.90;;;;;;5055442;28;20040;-72
2024/03/02 02:50:50;;;;;;;0.50;0.20;;;6.60;99.90;;;;;;5049617;28;20466;-75
2024/03/02 02:53:15;;;;;;;0.47;0.10;;;6.60;99.90;;;;;;5051653;28;20095;-72
2024/03/02 02:55:43;;;;;;;1.75;0.50;;;6.60;99.90;;;;;;5054775;28;20052;-72
2024/03/02 02:58:09;;;;;;;0.93;0.22;;;6.60;99.90;;;;;;5045805;28;20025;-72
2024/03/02 03:00:36;;;;;;;1.42;0.30;;;6.60;99.90;;;;;;5043358;28;20122;-73
2024/03/02 03:03:02;;;;;;;1.25;0.40;;;6.60;99.90;;;;;;5050708;28;20025;-71
2024/03/02 03:05:27;;;;;;;0.30;0.00;;;6.60;99.90;;;;;;5045830;28;20033;-72
2024/03/02 03:07:53;;;;;;;0.20;0.10;;;6.60;99.90;;;;;;5041802;28;20032;-72
2024/03/02 03:10:21;;;;;;;0.28;0.10;;;6.70;99.90;;;;;;5043644;28;20037;-69
2024/03/02 03:12:47;;;;;;;0.10;0.00;;;6.70;99.90;;;;;;5040281;28;20032;-73
2024/03/02 03:15:13;;;;;;;0.10;0.00;;;6.60;99.90;;;;;;5045478;28;20151;-73
2024/03/02 03:17:38;;;;;;;0.75;0.10;;;6.60;99.90;;;;;;5044582;28;20533;-73
2024/03/02 03:20:05;;;;;;;1.48;0.00;;;6.50;99.90;;;;;;5039045;28;20068;-73
2024/03/02 03:22:35;;;;;;;0.52;0.30;;;6.50;99.90;;;;;;5048053;28;20029;-72
2024/03/02 03:25:00;;;;;;;0.43;0.10;;;6.50;99.90;;;;;;5046760;28;20036;-72
2024/03/02 03:27:26;;;;;;;0.40;0.10;;;6.50;99.90;;;;;;5040771;28;20029;-73
2024/03/02 03:29:52;;;;;;;2.67;0.20;;;6.40;99.90;;;;;;5044390;28;20068;-71
2024/03/02 03:32:17;;;;;;;0.32;0.00;;;6.50;99.90;;;;;;5047838;28;20815;-71
2024/03/02 03:34:43;;;;;;;0.73;0.10;;;6.50;99.90;;;;;;5047385;28;20429;-73
2024/03/02 03:37:09;;;;;;;0.63;0.10;;;6.50;99.90;;;;;;5045961;28;20064;-73
2024/03/02 03:39:38;;;;;;;2.28;0.17;;;6.50;99.90;;;;;;5045187;28;20029;-72
2024/03/02 03:42:04;;;;;;;5.30;0.20;;;6.60;99.90;;;;;;5044582;28;20563;-72
2024/03/02 03:44:29;;;;;;;0.45;0.10;;;6.60;99.90;;;;;;5045774;28;20496;-71
2024/03/02 03:46:55;;;;;;;1.70;0.15;;;6.70;99.90;;;;;;5046380;28;20144;-73
2024/03/02 03:49:20;;;;;;;0.30;0.00;;;6.70;99.90;;;;;;5049780;28;20048;-71
2024/03/02 03:51:46;;;;;;;2.38;0.10;;;6.60;99.90;;;;;;5050539;28;20026;-71
2024/03/02 03:54:12;;;;;;;1.15;0.00;;;6.70;99.90;;;;;;5050122;28;20464;-72
2024/03/02 03:56:37;;;;;;;4.85;0.17;;;6.70;99.90;;;;;;5060858;28;20033;-71
2024/03/02 03:59:04;;;;;;;0.40;0.10;;;6.70;99.90;;;;;;5044288;28;20045;-74
2024/03/02 04:01:30;;;;;;;4.13;0.45;;;6.70;99.90;;;;;;5057583;28;20079;-72
2024/03/02 04:03:55;;;;;;;0.43;0.10;;;6.70;99.90;;;;;;5045052;28;20076;-73
2024/03/02 04:06:21;;;;;;;0.38;0.10;;;6.70;99.90;;;;;;5024657;28;20041;-75
2024/03/02 04:08:46;;;;;;;0.93;0.20;;;6.70;99.90;;;;;;5029315;28;20044;-72
2024/03/02 04:11:12;;;;;;;2.05;0.10;;;6.80;99.90;;;;;;5037954;28;20032;-72
2024/03/02 04:13:37;;;;;;;0.43;0.10;;;6.70;99.90;;;;;;5040794;28;20089;-72
2024/03/02 04:16:04;;;;;;;0.65;0.38;;;6.80;99.90;;;;;;5027130;28;20048;-72
2024/03/02 04:18:31;;;;;;;0.35;0.17;;;6.80;99.90;;;;;;5040343;28;20038;-70
2024/03/02 04:20:58;;;;;;;0.85;0.10;;;6.80;99.90;;;;;;5042365;28;20048;-73
2024/03/02 04:23:23;;;;;;;0.47;0.20;;;6.70;99.90;;;;;;5021823;28;20044;-73
2024/03/02 04:25:49;;;;;;;0.40;0.13;;;6.70;99.90;;;;;;5042249;28;20033;-71
2024/03/02 04:28:14;;;;;;;0.30;0.10;;;6.60;99.90;;;;;;5039459;28;20052;-72
2024/03/02 04:30:40;;;;;;;2.30;0.13;;;6.60;99.90;;;;;;5038562;28;20406;-72
2024/03/02 04:33:07;;;;;;;2.47;0.10;;;6.50;99.90;;;;;;5039649;28;20048;-72
2024/03/02 04:35:33;;;;;;;4.72;0.17;;;6.40;99.90;;;;;;5042065;28;20503;-72
2024/03/02 04:37:59;;;;;;;6.25;0.93;;;6.40;99.90;;;;;;5046419;28;20096;-71
2024/03/02 04:40:24;;;;;;;2.03;0.30;;;6.40;99.90;;;;;;5044022;28;20066;-72
2024/03/02 04:42:50;;;;;;;0.70;0.40;;;6.40;99.90;;;;;;5041754;28;20025;-72
2024/03/02 04:45:15;;;;;;;0.32;0.20;;;6.30;99.90;;;;;;5041534;28;20049;-72
2024/03/02 04:47:41;;;;;;;2.67;0.10;;;6.30;99.90;;;;;;5040785;28;20036;-71
2024/03/02 04:50:07;;;;;;;2.17;0.15;;;6.20;99.90;;;;;;5041787;28;20044;-72
2024/03/02 04:52:33;;;;;;;4.90;0.65;;;6.20;99.90;;;;;;5039942;28;20079;-72
2024/03/02 04:57:43;;;;;;;0.57;0.00;;;6.20;99.90;;;;;;5038987;28;20449;-73
2024/03/02 05:00:09;;;;;;;0.47;0.10;;;6.10;99.90;;;;;;5040993;28;20072;-72
2024/03/02 05:02:35;;;;;;;0.70;0.10;;;6.10;99.90;;;;;;5040536;28;20462;-73
2024/03/02 05:05:00;;;;;;;1.35;0.10;;;6.00;99.90;;;;;;5042304;28;20052;-69
2024/03/02 05:07:26;;;;;;;0.10;0.08;;;6.10;99.90;;;;;;5039994;28;20056;-71
2024/03/02 05:09:51;;;;;;;0.40;0.05;;;6.10;99.90;;;;;;5038139;28;20039;-73
2024/03/02 05:15:02;;;;;;;6.07;0.10;;;6.00;99.90;;;;;;5040347;28;20044;-71
2024/03/02 05:17:27;;;;;;;1.02;0.25;;;6.00;99.90;;;;;;5042112;28;20044;-71
2024/03/02 05:19:53;;;;;;;1.00;0.47;;;6.00;99.90;;;;;;5040099;28;20029;-71
2024/03/02 05:22:18;;;;;;;2.58;0.55;;;6.00;99.90;;;;;;5040216;28;21039;-72
2024/03/02 05:24:44;;;;;;;3.22;0.20;;;5.90;99.90;;;;;;5043498;28;20029;-73
2024/03/02 05:27:09;;;;;;;0.20;0.10;;;5.90;99.90;;;;;;5047425;28;20059;-71
2024/03/02 05:29:35;;;;;;;0.57;0.20;;;5.90;99.90;;;;;;5053799;28;20041;-72
2024/03/02 05:32:00;;;;;;;2.45;0.60;;;5.90;99.90;;;;;;5041165;28;20052;-72
2024/03/02 05:34:26;;;;;;;1.60;0.20;;;5.90;99.90;;;;;;5040201;28;20494;-75
2024/03/02 05:36:51;;;;;;;0.65;0.10;;;5.90;99.90;;;;;;5040226;28;20083;-71
2024/03/02 05:39:17;;;;;;;0.43;0.00;;;5.90;99.90;;;;;;5037035;28;20116;-71
2024/03/02 05:41:42;;;;;;;0.93;0.15;;;5.90;99.90;;;;;;5042281;28;20071;-72
2024/03/02 05:44:08;;;;;;;0.43;0.00;;;6.00;99.90;;;;;;5038353;28;20523;-72
2024/03/02 05:46:33;;;;;;;0.22;0.10;;;6.00;99.90;;;;;;5040137;28;20064;-72
2024/03/02 05:49:00;;;;;;;5.10;0.20;;;6.00;99.90;;;;;;5039346;28;20044;-73
2024/03/02 05:51:27;;;;;;;2.35;0.22;;;6.00;99.90;;;;;;5037134;28;20040;-73
2024/03/02 05:53:52;;;;;;;0.22;0.10;;;6.00;99.90;;;;;;5038745;28;20056;-71
2024/03/02 05:56:18;;;;;;;2.28;0.10;;;6.10;99.90;;;;;;5042872;28;20504;-71
2024/03/02 05:59:00;;;;;;;1.73;0.10;;;6.10;99.90;;;;;;5040516;28;20047;-71
2024/03/02 06:01:28;;;;;;;3.80;0.20;;;6.20;99.90;;;;;;5040300;28;20045;-72
2024/03/02 06:03:57;;;;;;;1.33;0.30;;;6.20;99.90;;;;;;5041744;28;20032;-71
2024/03/02 06:06:25;;;;;;;1.17;0.30;;;6.20;99.90;;;;;;5040428;28;20112;-71
2024/03/02 06:08:51;;;;;;;4.57;0.30;;;6.30;99.90;;;;;;5045381;28;20119;-71
2024/03/02 06:11:19;;;;;;;0.03;0.00;;;6.30;99.90;;;;;;5042037;28;20148;-71
2024/03/02 06:13:44;;;;;;;8.73;0.73;;;6.40;99.90;;;;;;5043339;28;20434;-71
2024/03/02 06:16:10;;;;;;;0.57;0.10;;;6.40;99.90;;;;;;5041535;28;20068;-72
2024/03/02 06:18:35;;;;;;;1.73;0.10;;;6.30;99.90;;;;;;5040355;28;20053;-70
2024/03/02 06:21:01;;;;;;;2.28;0.20;;;6.30;99.90;;;;;;5042439;28;20099;-70
2024/03/02 06:23:27;;;;;;;2.28;0.28;;;6.30;99.90;;;;;;5040815;28;20037;-73
2024/03/02 06:25:52;;;;;;;1.30;0.20;;;6.20;99.90;;;;;;5045723;28;20036;-71
2024/03/02 06:28:18;;;;;;;2.40;0.10;;;6.10;99.90;;;;;;5044047;28;20723;-72
2024/03/02 06:30:44;;;;;;;0.70;0.10;;;6.10;99.90;;;;;;5041367;28;20047;-72
2024/03/02 06:33:10;;;;;;;1.25;0.10;;;6.20;99.90;;;;;;5038912;28;20042;-72
2024/03/02 06:35:36;;;;;;;0.32;0.08;;;6.20;99.90;;;;;;5038028;28;20029;-72
2024/03/02 06:38:02;;;;;;;2.65;0.20;;;6.30;99.90;;;;;;5040267;28;20033;-72
2024/03/02 06:40:27;;;;;;;1.17;0.20;;;6.30;99.90;;;;;;5038838;28;20490;-73
2024/03/02 06:42:53;;;;;;;2.42;0.13;;;6.30;99.90;;;;;;5038020;28;20033;-72
2024/03/02 06:45:18;;;;;;;0.32;0.03;;;6.20;99.90;;;;;;5036531;28;20041;-73
2024/03/02 06:47:44;;;;;;;4.00;0.40;;;6.20;99.90;;;;;;5039032;28;20039;-73
2024/03/02 06:50:09;;;;;;;1.40;0.20;;;6.20;99.90;;;;;;5040800;28;20033;-72
2024/03/02 06:52:36;;;;;;;2.50;0.20;;;6.30;99.90;;;;;;5029004;28;20129;-72
2024/03/02 06:55:01;;;;;;;0.98;0.20;;;6.30;99.90;;;;;;5026151;28;20489;-68
2024/03/02 06:57:27;;;;;;;2.58;0.20;;;6.30;99.90;;;;;;5040280;28;20053;-72
2024/03/02 06:59:54;;;;;;;0.73;0.10;;;6.30;99.90;;;;;;5042116;28;20040;-74
2024/03/02 07:02:20;;;;;;;1.52;0.28;;;6.30;99.90;;;;;;5044491;28;20044;-71
2024/03/02 07:04:46;;;;;;;0.93;0.10;;;6.30;99.90;;;;;;5051634;28;20057;-71
2024/03/02 07:07:12;;;;;;;1.02;0.10;;;6.40;99.90;;;;;;5032364;28;20589;-72
2024/03/02 07:09:38;;;;;;;0.30;0.20;;;6.50;99.90;;;;;;5027653;28;20034;-72
2024/03/02 07:12:04;;;;;;;0.20;0.05;;;6.40;99.90;;;;;;5027667;28;20086;-72
2024/03/02 07:15:28;;;;;;;1.33;0.10;;;6.50;99.90;;;;;;5042313;28;20040;-72
2024/03/02 07:17:18;;;;;;;1.35;0.35;;;6.50;99.90;;;;;;5027473;28;20521;-72
2024/03/02 07:19:43;;;;;;;1.88;0.17;;;6.50;99.90;;;;;;5041315;28;20034;-71
2024/03/02 07:22:09;;;;;;;1.00;0.20;;;6.60;99.90;;;;;;5030258;28;20036;-70
2024/03/02 07:24:45;;;;;;;0.65;0.35;;;6.70;99.90;;;;;;5039735;28;20030;-72
2024/03/02 07:27:12;;;;;;;8.35;0.32;;;6.80;99.90;;;;;;5036743;28;20041;-74
2024/03/02 07:29:38;;;;;;;0.45;0.10;;;6.70;99.90;;;;;;5035203;28;20491;-73
2024/03/02 07:32:04;;;;;;;2.35;0.30;;;6.70;99.90;;;;;;5040600;28;20035;-72
2024/03/02 07:34:29;;;;;;;0.75;0.47;;;6.70;99.90;;;;;;5026840;28;20080;-71
2024/03/02 07:36:55;;;;;;;1.10;0.10;;;6.70;99.90;;;;;;5041064;28;20066;-72
2024/03/02 07:39:21;;;;;;;2.58;0.20;;;6.70;99.90;;;;;;5036522;28;20116;-73
2024/03/02 07:41:47;;;;;;;1.88;0.22;;;6.80;99.90;;;;;;5039814;28;20187;-72
2024/03/02 07:44:16;;;;;;;2.70;0.20;;;6.80;99.90;;;;;;5040557;28;20030;-76
2024/03/02 07:46:50;;;;;;;4.25;0.70;;;6.80;99.90;;;;;;5035917;28;20099;-72
2024/03/02 07:49:16;;;;;;;2.15;0.10;;;6.80;99.90;;;;;;5029814;28;20033;-74
2024/03/02 07:51:42;;;;;;;1.45;0.20;;;6.80;99.90;;;;;;5031854;28;20049;-71
2024/03/02 07:54:08;;;;;;;0.30;0.20;;;6.80;99.90;;;;;;5027898;28;20033;-73
2024/03/02 07:56:34;;;;;;;5.57;0.65;;;6.80;99.90;;;;;;5039902;28;20043;-73
2024/03/02 07:59:04;;;;;;;1.20;0.30;;;6.80;99.90;;;;;;5028200;28;20494;-71
2024/03/02 08:01:32;;;;;;;1.15;0.20;;;7.00;99.90;;;;;;5038714;28;20892;-73
2024/03/02 08:03:59;;;;;;;2.20;0.30;;;7.10;99.90;;;;;;5041952;28;20047;-72
2024/03/02 08:06:27;;;;;;;1.73;0.08;;;7.20;99.90;;;;;;5024230;28;20093;-73
2024/03/02 08:08:57;;;;;;;1.75;0.10;;;7.40;99.90;;;;;;5041293;28;20039;-72
2024/03/02 08:11:22;;;;;;;4.28;0.68;;;7.70;99.90;;;;;;5039251;28;20111;-73
2024/03/02 08:13:48;;;;;;;4.18;0.10;;;7.80;99.90;;;;;;5035545;28;20128;-71
2024/03/02 08:16:15;;;;;;;2.58;0.10;;;7.90;99.90;;;;;;5041497;28;20597;-72
2024/03/02 08:18:41;;;;;;;3.63;0.13;;;7.90;99.90;;;;;;5039725;28;20033;-72
2024/03/02 08:21:07;;;;;;;2.92;0.17;;;8.00;99.90;;;;;;5037894;28;20029;-72
2024/03/02 08:23:34;;;;;;;7.00;0.52;;;8.10;99.90;;;;;;5042309;28;20045;-72
2024/03/02 08:25:59;;;;;;;1.08;0.15;;;8.20;99.90;;;;;;5040613;28;20036;-72
2024/03/02 08:28:25;;;;;;;4.47;0.68;;;8.30;99.90;;;;;;5041449;28;20087;-73
2024/03/02 08:30:50;;;;;;;5.57;0.75;;;8.40;99.90;;;;;;5042010;28;20041;-71
2024/03/02 08:33:16;;;;;;;5.05;0.90;;;8.40;99.90;;;;;;5042728;28;20098;-76
2024/03/02 08:35:41;;;;;;;3.17;0.22;;;8.40;99.90;;;;;;5040905;28;20501;-71
2024/03/02 08:38:07;;;;;;;1.73;0.40;;;8.50;99.90;;;;;;5041741;28;20129;-72
2024/03/02 08:40:33;;;;;;;2.92;0.40;;;8.50;99.90;;;;;;5046814;28;20049;-74
2024/03/02 08:42:58;;;;;;;1.50;0.15;;;8.60;99.90;;;;;;5044378;28;20075;-72
2024/03/02 08:45:24;;;;;;;1.52;0.20;;;8.60;99.90;;;;;;5037942;28;20401;-72
2024/03/02 08:47:49;;;;;;;0.32;0.10;;;8.70;99.90;;;;;;5037686;28;20421;-73
2024/03/02 08:50:15;;;;;;;1.55;0.30;;;8.70;99.90;;;;;;5035801;28;20098;-72
2024/03/02 08:52:40;;;;;;;2.60;0.10;;;8.80;99.90;;;;;;5035395;28;20128;-72
2024/03/02 08:55:07;;;;;;;1.05;0.38;;;8.80;99.90;;;;;;5038908;28;20037;-75
2024/03/02 08:57:33;;;;;;;2.95;0.57;;;8.80;99.90;;;;;;5040336;28;20037;-75
2024/03/02 08:59:59;;;;;;;3.53;0.43;;;8.80;99.90;;;;;;5028278;28;20033;-74
2024/03/02 09:02:25;;;;;;;1.42;0.20;;;8.90;99.90;;;;;;5042317;28;20040;-72
2024/03/02 09:04:50;;;;;;;3.53;0.30;;;8.90;99.90;;;;;;5040297;28;20092;-73
2024/03/02 09:07:16;;;;;;;1.95;0.20;;;9.00;99.90;;;;;;5043016;28;20045;-74
2024/03/02 09:09:41;;;;;;;3.40;0.20;;;9.00;99.90;;;;;;5045087;28;20041;-71
2024/03/02 09:12:07;;;;;;;2.17;0.43;;;9.10;99.90;;;;;;5063244;28;20032;-73
2024/03/02 09:14:34;;;;;;;0.98;0.30;;;9.10;99.90;;;;;;5063428;28;20049;-72
2024/03/02 09:17:00;;;;;;;2.10;0.25;;;9.20;99.90;;;;;;5047191;28;20037;-73
2024/03/02 09:19:25;;;;;;;1.90;0.20;;;9.20;99.90;;;;;;5061150;28;20048;-72
2024/03/02 09:21:51;;;;;;;2.85;0.20;;;9.20;99.90;;;;;;5047367;28;20446;-73
2024/03/02 09:24:16;;;;;;;1.67;0.40;;;9.20;99.90;;;;;;5047179;28;20059;-71
2024/03/02 09:26:42;;;;;;;3.25;0.30;;;9.30;99.90;;;;;;5066365;28;20037;-71
2024/03/02 09:29:07;;;;;;;4.38;0.47;;;9.30;99.90;;;;;;5068268;28;20029;-72
2024/03/02 09:31:38;;;;;;;6.00;0.30;;;9.40;99.90;;;;;;5066829;28;20029;-72
2024/03/02 09:34:04;;;;;;;1.50;0.20;;;9.50;99.90;;;;;;5062079;28;20103;-73
2024/03/02 09:36:29;;;;;;;1.77;0.40;;;9.60;99.90;;;;;;5068583;28;20139;-73
2024/03/02 09:38:55;;;;;;;1.67;0.40;;;9.70;99.90;;;;;;5057366;28;20099;-72
2024/03/02 09:41:20;;;;;;;7.10;0.57;;;9.70;99.90;;;;;;5045428;28;20571;-72
2024/03/02 09:43:46;;;;;;;2.55;0.35;;;9.70;99.90;;;;;;5064591;28;20075;-72
2024/03/02 09:46:12;;;;;;;2.33;0.30;;;9.80;99.90;;;;;;5050802;28;20033;-72
2024/03/02 09:48:38;;;;;;;1.90;0.20;;;9.90;99.90;;;;;;5068955;28;20043;-73
2024/03/02 09:51:04;;;;;;;4.22;0.70;;;9.90;99.90;;;;;;5068346;28;20508;-72
2024/03/02 09:53:32;;;;;;;2.05;0.10;;;9.90;99.90;;;;;;5050937;28;20041;-73
2024/03/02 09:55:59;;;;;;;0.40;0.10;;;9.90;99.90;;;;;;5053834;28;20693;-71
2024/03/02 09:58:25;;;;;;;3.25;0.85;;;10.00;99.90;;;;;;5036800;28;20036;-71
2024/03/02 10:00:50;;;;;;;3.90;0.20;;;10.00;99.90;;;;;;5038570;28;20030;-72
2024/03/02 10:03:22;;;;;;;0.88;0.32;;;10.00;99.90;;;;;;5027959;28;20510;-71
2024/03/02 10:05:48;;;;;;;4.00;0.45;;;10.10;99.90;;;;;;5057323;28;20060;-72
2024/03/02 10:08:13;;;;;;;3.53;0.20;;;10.20;99.90;;;;;;5058740;28;20072;-71
2024/03/02 10:10:41;;;;;;;3.78;0.75;;;10.20;99.90;;;;;;5059363;28;20029;-72
2024/03/02 10:13:07;;;;;;;1.15;0.30;;;10.30;99.90;;;;;;5057582;28;20040;-71
2024/03/02 10:15:34;;;;;;;2.42;0.20;;;10.30;99.90;;;;;;5061131;28;20128;-71
2024/03/02 10:17:59;;;;;;;4.38;0.50;;;10.30;99.90;;;;;;5064998;28;20047;-70
2024/03/02 10:20:28;;;;;;;5.68;0.65;;;10.30;99.90;;;;;;5051962;28;20562;-71
2024/03/02 10:22:54;;;;;;;4.00;0.65;;;10.40;99.90;;;;;;5068753;28;20112;-70
2024/03/02 10:25:30;;;;;;;3.88;0.40;;;10.40;99.90;;;;;;5067508;28;20481;-71
2024/03/02 10:27:58;;;;;;;6.72;0.60;;;10.50;99.90;;;;;;5048404;28;20121;-74
2024/03/02 10:30:24;;;;;;;1.30;0.20;;;10.40;99.90;;;;;;5066465;28;20040;-73
2024/03/02 10:32:50;;;;;;;7.07;0.93;;;10.50;99.90;;;;;;5070459;28;20035;-73
2024/03/02 10:35:16;;;;;;;4.13;0.80;;;10.60;99.90;;;;;;5051794;28;20120;-74
2024/03/02 10:37:42;;;;;;;2.75;0.43;;;10.60;99.90;;;;;;5052608;28;20513;-75
2024/03/02 10:40:13;;;;;;;2.42;0.43;;;10.60;99.90;;;;;;5073033;28;20038;-73
2024/03/02 10:42:39;;;;;;;1.88;0.82;;;10.60;99.90;;;;;;5052826;28;20158;-74
2024/03/02 10:45:08;;;;;;;1.25;0.25;;;10.70;99.90;;;;;;5065080;28;20124;-74
2024/03/02 10:47:36;;;;;;;9.43;0.20;;;10.60;99.90;;;;;;5070377;28;20037;-81
2024/03/02 10:50:04;;;;;;;3.95;0.38;;;10.70;99.90;;;;;;5069417;28;20090;-74
2024/03/02 10:52:29;;;;;;;3.92;0.30;;;10.70;99.90;;;;;;5052162;28;20037;-73
2024/03/02 10:54:55;;;;;;;3.63;1.35;;;10.80;99.90;;;;;;5069965;28;20039;-74
2024/03/02 10:57:23;;;;;;;2.75;0.28;;;10.70;99.90;;;;;;5070102;28;20041;-75
2024/03/02 11:00:02;;;;;;;1.63;0.20;;;10.70;99.90;;;;;;5052948;28;20029;-74
2024/03/02 11:02:31;;;;;;;0.60;0.20;;;10.70;99.90;;;;;;5062027;28;20044;-75
2024/03/02 11:05:03;;;;;;;1.10;0.35;;;10.70;99.90;;;;;;5050973;28;20045;-74
2024/03/02 11:07:29;;;;;;;1.05;0.30;;;10.70;99.90;;;;;;5038202;28;20045;-77
2024/03/02 11:09:59;;;;;;;1.63;0.45;;;10.80;99.90;;;;;;5049596;28;20048;-75
2024/03/02 11:12:29;;;;;;;2.95;1.00;;;10.90;99.90;;;;;;5031198;28;20029;-72
2024/03/02 11:14:56;;;;;;;1.48;0.25;;;10.90;99.90;;;;;;5042825;28;20048;-76
2024/03/02 11:17:23;;;;;;;9.73;0.57;;;11.00;99.90;;;;;;5046292;28;20033;-78
2024/03/02 11:19:49;;;;;;;2.08;0.20;;;11.00;99.90;;;;;;5048888;28;20089;-74
2024/03/02 11:22:15;;;;;;;0.70;0.17;;;11.00;99.90;;;;;;5056496;28;20033;-78
2024/03/02 11:24:51;;;;;;;5.40;0.20;;;10.90;99.90;;;;;;5045679;28;20041;-73
2024/03/02 11:27:45;;;;;;;2.50;0.17;;;10.90;99.90;;;;;;5039235;28;20037;-74
2024/03/02 11:30:33;;;;;;;2.20;0.15;;;10.90;99.90;;;;;;5035732;28;20080;-74
2024/03/02 11:33:09;;;;;;;2.50;0.28;;;10.90;99.90;;;;;;5043653;28;20506;-73
2024/03/02 11:35:35;;;;;;;2.85;0.20;;;11.00;99.90;;;;;;5040648;28;20064;-75
2024/03/02 11:38:03;;;;;;;4.82;0.40;;;11.00;99.90;;;;;;5044877;28;20053;-74
2024/03/02 11:40:29;;;;;;;3.03;0.43;;;11.00;99.90;;;;;;5043570;28;20032;-73
2024/03/02 11:42:56;;;;;;;2.03;0.20;;;11.00;99.90;;;;;;5039327;28;20034;-74
2024/03/02 11:45:28;;;;;;;2.85;0.22;;;11.00;99.90;;;;;;5023377;28;20025;-76
2024/03/02 11:47:55;;;;;;;1.00;0.20;;;11.00;99.90;;;;;;5041719;28;20363;-75
2024/03/02 11:50:32;;;;;;;1.77;0.22;;;11.10;99.90;;;;;;5043905;28;22196;-74
2024/03/02 11:52:58;;;;;;;2.90;0.10;;;11.10;99.90;;;;;;5042601;28;20036;-75
2024/03/02 11:55:25;;;;;;;1.23;0.10;;;11.20;99.90;;;;;;5043140;28;20037;-76
2024/03/02 11:57:53;;;;;;;1.20;0.22;;;11.30;99.90;;;;;;5047958;28;20041;-77
2024/03/02 12:00:19;;;;;;;1.85;0.22;;;11.20;99.90;;;;;;5051016;28;20037;-75
2024/03/02 12:02:49;;;;;;;2.80;0.30;;;11.30;99.90;;;;;;5042606;28;20032;-74
2024/03/02 12:05:17;;;;;;;1.05;0.52;;;11.30;99.90;;;;;;5039690;28;20124;-74
2024/03/02 12:07:43;;;;;;;2.90;0.30;;;11.30;99.90;;;;;;5038275;28;20070;-74
2024/03/02 12:10:09;;;;;;;1.50;0.40;;;11.40;99.90;;;;;;5040756;28;20508;-74
2024/03/02 12:12:34;;;;;;;2.72;0.30;;;11.40;99.90;;;;;;5043188;28;20037;-74
2024/03/02 12:15:00;;;;;;;0.73;0.17;;;11.50;99.90;;;;;;5043745;28;20063;-75
2024/03/02 12:17:26;;;;;;;1.85;0.30;;;11.60;99.90;;;;;;5044586;28;20041;-74
2024/03/02 12:19:52;;;;;;;5.43;0.25;;;11.60;99.90;;;;;;5040125;28;20038;-74
2024/03/02 12:22:18;;;;;;;4.18;0.22;;;11.60;99.90;;;;;;5043507;28;20029;-76
2024/03/02 12:24:47;;;;;;;2.13;0.25;;;11.60;99.90;;;;;;5042704;28;20029;-74
2024/03/02 12:27:15;;;;;;;1.63;0.10;;;11.50;99.90;;;;;;5044585;28;20056;-76
2024/03/02 12:29:41;;;;;;;0.88;0.52;;;11.50;99.90;;;;;;5037899;28;20518;-74
2024/03/02 12:32:06;;;;;;;6.03;0.63;;;11.60;99.90;;;;;;5040607;28;20045;-74
2024/03/02 12:34:32;;;;;;;1.98;0.20;;;11.50;99.90;;;;;;5038821;28;20060;-75
2024/03/02 12:36:58;;;;;;;3.33;0.20;;;11.60;99.90;;;;;;5040570;28;20095;-75
2024/03/02 12:39:24;;;;;;;7.40;0.40;;;11.60;99.90;;;;;;5036056;28;20108;-74
2024/03/02 12:41:50;;;;;;;1.35;0.28;;;11.50;99.90;;;;;;5040455;28;20034;-75
2024/03/02 12:44:18;;;;;;;5.20;0.80;;;11.50;99.90;;;;;;5042555;28;20021;-75
2024/03/02 12:46:44;;;;;;;1.48;0.55;;;11.60;99.90;;;;;;5043567;28;20037;-77
2024/03/02 12:49:11;;;;;;;0.63;0.10;;;11.60;99.90;;;;;;5050256;28;20029;-75
2024/03/02 12:51:40;;;;;;;1.10;0.20;;;11.70;99.90;;;;;;5046861;28;20029;-74
2024/03/02 12:54:10;;;;;;;4.57;0.35;;;11.70;99.90;;;;;;5042968;28;20037;-75
2024/03/02 12:56:37;;;;;;;3.08;0.38;;;11.80;99.90;;;;;;5041136;28;20061;-78
2024/03/02 12:59:03;;;;;;;3.78;0.70;;;11.80;99.90;;;;;;5041445;28;20111;-74